Pagrindinis puslapis
METAR-TAF:

METAR-TAF

Oro uostai :

Malatija, Turkija

platuma: 38-26N, ilguma: 038-05E, Aukštis: 862 m

Dabartinis oras

Ataskaita buvo paskelbta 47 minutes, ne 23:50 UTC
Ramus vėjas
Temperatūra 17°C
Drėgmė 23%
Slėgis 1016 hPa
Matomumas 10 km arba daugiau
Mažai debesys ne aukštis 4000 ft
Su prošvaistėmis ne aukštis 10000 ft

METAR: LTAT 312350Z 00000KT 9999 FEW040 BKN100 17/M04 Q1016 NOSIG RMK RWY03 21007KT

Laikas: 03:37 (00:37 UTC)

Prognozė

Ataskaita buvo paskelbta 1 valandą ir 57 minutes, ne 22:40 UTC
Prognozė galioja nuo 01 metu 00 UTC su 01 metu 24 UTC
Vėjas 9 kt iš Pietų/Pietvakarių
Matomumas 10 km arba daugiau
Išsisklaidę debesys ne aukštis 4000 ft
Su prošvaistėmis ne aukštis 10000 ft
Laikinai
nuo 01 metu 11 UTC su 01 metu 15 UTC
lietus

TAF: LTAT 312240Z 0100/0124 21009KT 9999 SCT040 BKN100 TEMPO 0111/0115 -SHRA

Orai ataskaitas ir orų prognozės (METAR, TAF).

turimą stotys yra geltonos ir raudonos taškus žemėlapyje.

Perkelti pele per norėdami pamatyti stoties vardą.

Tada spustelėkite, norėdami matyti oro stebėjimo ir prognozės.

Norėdami pakeisti žemėlapį: spustelėkite ant žalios mygtukų su juodo kryžiaus žemyn,; žalią mygtuką su brūkšneliu, jei norite nutolinti; arba žalių rodyklių gretimoms žemėlapius.


METAR-TAF: